createdAt,value
2023-05-15T00:00:25.301Z,10.68
2023-05-15T00:05:27.492Z,12.65
2023-05-15T00:10:29.906Z,15.43
2023-05-15T00:15:32.386Z,13.82
2023-05-15T00:20:34.060Z,13.50
2023-05-15T00:25:35.783Z,13.75
2023-05-15T00:30:37.694Z,14.73
2023-05-15T00:35:39.529Z,14.00
2023-05-15T00:40:42.109Z,13.68
2023-05-15T00:45:44.869Z,14.25
2023-05-15T00:50:47.406Z,14.45
2023-05-15T00:55:50.683Z,13.55
2023-05-15T01:00:53.499Z,12.30
2023-05-15T01:05:56.873Z,11.93
2023-05-15T01:11:00.294Z,12.88
2023-05-15T01:16:04.160Z,14.80
2023-05-15T01:21:37.514Z,13.77
2023-05-15T01:27:07.260Z,12.27
2023-05-15T01:32:51.035Z,14.25
2023-05-15T01:38:17.832Z,10.88
2023-05-15T01:43:24.286Z,11.52
2023-05-15T01:48:28.871Z,12.95
2023-05-15T01:53:35.196Z,13.07
2023-05-15T01:58:42.114Z,14.68
2023-05-15T02:03:50.704Z,17.73
2023-05-15T02:08:54.932Z,15.82
2023-05-15T02:13:58.972Z,32.90
2023-05-15T02:19:01.010Z,46.28
2023-05-15T02:24:02.794Z,24.10
2023-05-15T02:29:27.559Z,13.82
2023-05-15T02:34:45.915Z,12.27
2023-05-15T02:39:54.312Z,16.25
2023-05-15T02:44:57.546Z,15.50
2023-05-15T02:50:02.804Z,15.85
2023-05-15T02:55:07.714Z,15.60
2023-05-15T03:00:13.602Z,14.48
2023-05-15T03:05:17.375Z,15.77
2023-05-15T03:10:24.657Z,18.58
2023-05-15T03:15:26.816Z,14.93
2023-05-15T03:20:34.071Z,16.45
2023-05-15T03:25:38.136Z,15.98
2023-05-15T03:30:39.878Z,15.13
2023-05-15T03:35:41.868Z,14.57
2023-05-15T03:40:43.588Z,15.43
2023-05-15T03:45:47.744Z,15.30
2023-05-15T03:50:50.937Z,17.30
2023-05-15T03:55:54.242Z,13.73
2023-05-15T04:00:56.318Z,14.50
2023-05-15T04:05:58.005Z,16.30
2023-05-15T04:11:00.181Z,15.65
2023-05-15T04:16:02.513Z,15.15
2023-05-15T04:21:04.239Z,14.95
2023-05-15T04:26:05.936Z,14.52
2023-05-15T04:31:10.448Z,16.08
2023-05-15T04:36:13.548Z,12.35
2023-05-15T04:41:15.481Z,13.25
2023-05-15T04:46:17.181Z,16.63
2023-05-15T04:51:18.924Z,15.50
2023-05-15T04:56:21.293Z,14.18
2023-05-15T05:01:23.427Z,14.35
2023-05-15T05:06:25.342Z,12.98
2023-05-15T05:11:27.128Z,13.05
2023-05-15T05:16:28.885Z,12.05
2023-05-15T05:21:32.592Z,13.00
2023-05-15T05:26:37.680Z,13.05
2023-05-15T05:31:39.389Z,12.90
2023-05-15T05:36:41.493Z,13.32
2023-05-15T05:41:43.914Z,11.95
2023-05-15T05:46:46.156Z,15.70
2023-05-15T05:51:52.537Z,13.80
2023-05-15T05:56:55.915Z,13.25
2023-05-15T06:01:57.836Z,14.00
2023-05-15T06:07:01.911Z,13.02
2023-05-15T06:12:08.479Z,12.77
2023-05-15T06:17:11.283Z,13.93
2023-05-15T06:22:13.059Z,16.73
2023-05-15T06:27:17.959Z,13.02
2023-05-15T06:32:22.013Z,15.32
2023-05-15T06:37:23.873Z,15.52
2023-05-15T06:42:25.788Z,13.98
2023-05-15T06:47:29.039Z,14.07
2023-05-15T06:52:32.355Z,15.45
2023-05-15T06:57:34.818Z,16.08
2023-05-15T07:02:36.749Z,16.48
2023-05-15T07:07:41.097Z,15.00
2023-05-15T07:12:43.122Z,15.45
2023-05-15T07:17:46.329Z,15.73
2023-05-15T07:22:56.286Z,15.85
2023-05-15T07:27:58.554Z,14.73
2023-05-15T07:33:00.375Z,13.13
2023-05-15T07:38:03.486Z,13.07
2023-05-15T07:43:08.321Z,17.45
2023-05-15T07:48:24.444Z,11.90
2023-05-15T07:53:26.406Z,12.57
2023-05-15T07:58:28.636Z,11.02
2023-05-15T08:03:31.658Z,13.05
2023-05-15T08:08:33.689Z,10.88
2023-05-15T08:13:35.429Z,12.20
2023-05-15T08:18:38.385Z,10.82
2023-05-15T08:23:40.093Z,9.73
2023-05-15T08:28:42.837Z,9.40
2023-05-15T08:33:44.895Z,7.90
2023-05-15T08:38:46.617Z,7.22
2023-05-15T08:43:53.684Z,9.10
2023-05-15T08:48:56.855Z,6.10
2023-05-15T08:54:00.927Z,9.55
2023-05-15T08:59:03.992Z,7.47
2023-05-15T09:04:06.767Z,8.55
2023-05-15T09:09:14.563Z,8.35
2023-05-15T09:14:18.097Z,8.18
2023-05-15T09:19:23.998Z,8.23
2023-05-15T09:24:29.216Z,6.85
2023-05-15T09:29:31.972Z,7.72
2023-05-15T09:34:35.865Z,11.02
2023-05-15T09:39:46.974Z,10.48
2023-05-15T09:44:48.872Z,6.78
2023-05-15T09:49:51.722Z,6.32
2023-05-15T09:54:55.703Z,9.23
2023-05-15T10:00:05.197Z,5.68
2023-05-15T10:05:08.090Z,6.47
2023-05-15T10:10:10.410Z,7.20
2023-05-15T10:15:15.393Z,6.22
2023-05-15T10:20:20.099Z,6.68
2023-05-15T10:25:42.868Z,5.13
2023-05-15T10:30:45.347Z,5.57
2023-05-15T10:35:49.410Z,5.03
2023-05-15T10:40:57.592Z,6.13
2023-05-15T10:46:07.942Z,4.50
2023-05-15T10:51:17.870Z,6.47
2023-05-15T10:56:23.433Z,4.53
2023-05-15T11:01:45.598Z,4.75
2023-05-15T11:06:50.999Z,6.15
2023-05-15T11:12:00.248Z,6.25
2023-05-15T11:17:07.621Z,6.47
2023-05-15T11:22:16.933Z,6.45
2023-05-15T11:27:29.871Z,7.25
2023-05-15T11:32:39.929Z,8.13
2023-05-15T11:38:04.508Z,6.40
2023-05-15T11:43:27.324Z,7.78
2023-05-15T11:48:35.220Z,7.97
2023-05-15T11:53:39.166Z,7.93
2023-05-15T11:58:43.143Z,9.52
2023-05-15T12:03:47.932Z,9.00
2023-05-15T12:08:53.624Z,8.40
2023-05-15T12:13:55.478Z,8.32
2023-05-15T12:18:58.717Z,7.60
2023-05-15T12:29:08.758Z,7.90
2023-05-15T12:34:11.423Z,7.68
2023-05-15T12:39:13.169Z,9.23
2023-05-15T12:44:18.977Z,8.00
2023-05-15T12:49:23.842Z,8.82
2023-05-15T12:54:26.493Z,6.05
2023-05-15T12:59:29.653Z,8.13
2023-05-15T13:04:33.459Z,10.82
2023-05-15T13:09:39.801Z,6.75
2023-05-15T13:14:43.020Z,7.38
2023-05-15T13:19:44.793Z,8.15
2023-05-15T13:24:50.113Z,6.82
2023-05-15T13:29:51.966Z,7.32
2023-05-15T13:34:54.992Z,9.35
2023-05-15T13:39:57.612Z,6.00
2023-05-15T13:44:59.500Z,6.82
2023-05-15T13:50:02.863Z,8.10
2023-05-15T13:55:05.641Z,5.93
2023-05-15T14:00:11.556Z,6.68
2023-05-15T14:05:19.972Z,5.78
2023-05-15T14:10:25.061Z,5.28
2023-05-15T14:15:28.053Z,4.38
2023-05-15T14:20:29.842Z,4.43
2023-05-15T14:25:42.768Z,5.20
2023-05-15T14:30:44.477Z,4.45
2023-05-15T14:35:47.650Z,6.07
2023-05-15T14:40:49.427Z,4.13
2023-05-15T14:45:52.008Z,6.05
2023-05-15T14:50:56.394Z,4.72
2023-05-15T14:55:58.610Z,5.15
2023-05-15T15:01:00.419Z,4.60
2023-05-15T15:06:02.269Z,3.95
2023-05-15T15:11:05.748Z,5.30
2023-05-15T15:16:08.219Z,5.80
2023-05-15T15:21:12.389Z,6.47
2023-05-15T15:26:14.768Z,18.65
2023-05-15T15:31:16.645Z,6.97
2023-05-15T15:36:25.538Z,5.90
2023-05-15T15:41:30.568Z,4.10
2023-05-15T15:46:33.138Z,6.35
2023-05-15T15:51:34.856Z,8.07
2023-05-15T15:56:37.673Z,5.50
2023-05-15T16:01:39.562Z,7.50
2023-05-15T16:06:41.501Z,4.95
2023-05-15T16:11:43.331Z,6.18
2023-05-15T16:16:46.624Z,8.57
2023-05-15T16:21:50.748Z,5.68
2023-05-15T16:26:53.786Z,6.88
2023-05-15T16:31:56.953Z,4.50
2023-05-15T16:37:00.171Z,5.57
2023-05-15T16:42:07.881Z,7.95
2023-05-15T16:47:12.180Z,5.10
2023-05-15T16:52:13.968Z,4.65
2023-05-15T16:57:16.325Z,5.85
2023-05-15T17:02:18.161Z,5.90
2023-05-15T17:07:21.552Z,8.77
2023-05-15T17:12:23.491Z,6.50
2023-05-15T17:17:28.089Z,5.00
2023-05-15T17:22:33.084Z,4.75
2023-05-15T17:27:39.742Z,4.28
2023-05-15T17:32:41.787Z,7.57
2023-05-15T17:37:45.115Z,5.13
2023-05-15T17:42:49.144Z,5.00
2023-05-15T17:47:51.119Z,6.65
2023-05-15T17:52:56.100Z,5.05
2023-05-15T17:57:58.480Z,5.82
2023-05-15T18:03:01.185Z,6.45
2023-05-15T18:08:03.722Z,6.50
2023-05-15T18:13:07.336Z,5.40
2023-05-15T18:18:09.017Z,5.00
2023-05-15T18:23:10.704Z,6.13
2023-05-15T18:28:13.408Z,6.22
2023-05-15T18:33:17.303Z,4.88
2023-05-15T18:38:19.190Z,6.00
2023-05-15T18:43:22.082Z,6.50
2023-05-15T18:48:23.854Z,5.93
2023-05-15T18:53:25.640Z,6.85
2023-05-15T18:58:27.371Z,5.70
2023-05-15T19:03:29.339Z,6.30
2023-05-15T19:08:31.180Z,10.13
2023-05-15T19:13:33.166Z,7.93
2023-05-15T19:18:34.969Z,9.18
2023-05-15T19:23:36.750Z,7.75
2023-05-15T19:28:38.548Z,9.02
2023-05-15T19:33:40.655Z,7.80
2023-05-15T19:38:44.542Z,7.32
2023-05-15T19:43:47.020Z,9.57
2023-05-15T19:48:48.932Z,10.20
2023-05-15T19:53:51.976Z,7.93
2023-05-15T19:58:54.369Z,7.30
2023-05-15T20:03:56.427Z,7.78
2023-05-15T20:08:58.243Z,7.30
2023-05-15T20:14:00.175Z,7.25
2023-05-15T20:19:02.055Z,9.32
2023-05-15T20:24:04.205Z,10.82
2023-05-15T20:29:05.967Z,12.88
2023-05-15T20:34:10.637Z,9.23
2023-05-15T20:39:14.368Z,8.55
2023-05-15T20:44:16.634Z,9.23
2023-05-15T20:49:18.619Z,9.23
2023-05-15T20:54:20.550Z,9.50
2023-05-15T20:59:22.404Z,8.45
2023-05-15T21:04:24.232Z,7.65
2023-05-15T21:09:27.113Z,9.93
2023-05-15T21:14:29.454Z,11.48
2023-05-15T21:19:31.310Z,9.48
2023-05-15T21:24:33.122Z,10.93
2023-05-15T21:29:35.040Z,9.82
2023-05-15T21:34:37.829Z,10.07
2023-05-15T21:39:39.634Z,9.93
2023-05-15T21:44:41.760Z,10.38
2023-05-15T21:49:43.770Z,12.23
2023-05-15T21:54:47.168Z,14.25
2023-05-15T21:59:49.021Z,12.38
2023-05-15T22:04:50.986Z,10.85
2023-05-15T22:09:54.100Z,12.77
2023-05-15T22:14:58.737Z,10.82
2023-05-15T22:20:02.648Z,10.23
2023-05-15T22:25:05.579Z,10.63
2023-05-15T22:30:08.557Z,10.82
2023-05-15T22:35:11.277Z,13.27
2023-05-15T22:40:13.291Z,10.88
2023-05-15T22:45:16.515Z,11.77
2023-05-15T22:50:19.044Z,11.70
2023-05-15T22:55:20.765Z,12.55
2023-05-15T23:00:22.465Z,10.65
2023-05-15T23:05:24.894Z,10.88
2023-05-15T23:10:26.815Z,10.85
2023-05-15T23:15:28.741Z,10.63
2023-05-15T23:20:30.675Z,11.65
2023-05-15T23:25:32.486Z,10.43
2023-05-15T23:30:34.211Z,14.05
2023-05-15T23:35:35.912Z,12.70
2023-05-15T23:40:37.694Z,10.65
2023-05-15T23:45:39.356Z,11.07
2023-05-15T23:50:41.023Z,11.15
2023-05-15T23:55:42.740Z,10.57
